DAL1988 KMYR-KLGA
Flight info
| Callsign | DAL1988 |
|---|---|
| Flight time | 1h 30m |
| Altitude | 35000 |
| Route | CRE CHKLZ ZORDO Q107 HURTS PROUD2 |
| Aircraft | B739/M-SDE2E3FGHIRWXY/LB1 |
Departure
| Time | 2026-04-24 21:12 |
|---|---|
| Airport | Myrtle Beach International Airport (KMYR) |
Arrival
| Time | 2026-04-24 22:42 |
|---|---|
| Airport | LaGuardia Airport (KLGA) |
| Time | Latitude | Longitude | Altitude | Speed | Heading |
|---|---|---|---|---|---|
| 2026-04-24 20:44 | 33.68255 | -78.92416 | 31 ft | 0 kts | 94° |
| 2026-04-24 21:03 | 33.68256 | -78.92445 | 31 ft | 4 kts | 82° |
| 2026-04-24 21:04 | 33.68249 | -78.92476 | 31 ft | 4 kts | 62° |
| 2026-04-24 21:04 | 33.68233 | -78.92501 | 30 ft | 4 kts | 34° |
| 2026-04-24 21:04 | 33.68209 | -78.92514 | 31 ft | 4 kts | 6° |
| 2026-04-24 21:04 | 33.68186 | -78.92513 | 30 ft | 4 kts | 352° |
| 2026-04-24 21:05 | 33.68160 | -78.92511 | 30 ft | 4 kts | 354° |
| 2026-04-24 21:05 | 33.68151 | -78.92509 | 31 ft | 0 kts | 351° |
| 2026-04-24 21:07 | 33.68153 | -78.92510 | 31 ft | 1 kts | 351° |
| 2026-04-24 21:07 | 33.68183 | -78.92526 | 30 ft | 8 kts | 329° |
| 2026-04-24 21:07 | 33.68262 | -78.92556 | 31 ft | 16 kts | 348° |
| 2026-04-24 21:08 | 33.68391 | -78.92587 | 31 ft | 22 kts | 348° |
| 2026-04-24 21:08 | 33.68548 | -78.92626 | 31 ft | 23 kts | 348° |
| 2026-04-24 21:08 | 33.68701 | -78.92665 | 31 ft | 22 kts | 348° |
| 2026-04-24 21:08 | 33.68849 | -78.92701 | 31 ft | 22 kts | 348° |
| 2026-04-24 21:09 | 33.68994 | -78.92737 | 30 ft | 21 kts | 348° |
| 2026-04-24 21:09 | 33.69134 | -78.92773 | 32 ft | 20 kts | 348° |
| 2026-04-24 21:09 | 33.69239 | -78.92799 | 32 ft | 11 kts | 348° |
| 2026-04-24 21:09 | 33.69290 | -78.92852 | 32 ft | 11 kts | 273° |
| 2026-04-24 21:10 | 33.69279 | -78.92938 | 32 ft | 10 kts | 258° |
| 2026-04-24 21:10 | 33.69262 | -78.93030 | 30 ft | 12 kts | 257° |
| 2026-04-24 21:10 | 33.69236 | -78.93129 | 33 ft | 12 kts | 224° |
| 2026-04-24 21:10 | 33.69153 | -78.93126 | 33 ft | 13 kts | 168° |
| 2026-04-24 21:11 | 33.68919 | -78.93069 | 34 ft | 64 kts | 168° |
| 2026-04-24 21:11 | 33.68286 | -78.92911 | 30 ft | 119 kts | 168° |
| 2026-04-24 21:11 | 33.67337 | -78.92675 | 47 ft | 156 kts | 169° |
| 2026-04-24 21:11 | 33.66279 | -78.92402 | 577 ft | 150 kts | 172° |
| 2026-04-24 21:12 | 33.65233 | -78.92171 | 1020 ft | 157 kts | 186° |
| 2026-04-24 21:12 | 33.64528 | -78.92322 | 1317 ft | 156 kts | 196° |
| 2026-04-24 21:12 | 33.63011 | -78.92607 | 1766 ft | 175 kts | 191° |
| 2026-04-24 21:12 | 33.61814 | -78.93129 | 1859 ft | 194 kts | 219° |
| 2026-04-24 21:13 | 33.61031 | -78.94498 | 2042 ft | 211 kts | 253° |
| 2026-04-24 21:13 | 33.61064 | -78.96298 | 2271 ft | 230 kts | 285° |
| 2026-04-24 21:13 | 33.61943 | -78.97938 | 2683 ft | 240 kts | 314° |
| 2026-04-24 21:13 | 33.63408 | -78.98945 | 3140 ft | 250 kts | 344° |
| 2026-04-24 21:14 | 33.65143 | -78.98958 | 3634 ft | 256 kts | 14° |
| 2026-04-24 21:14 | 33.66681 | -78.97884 | 4093 ft | 259 kts | 44° |
| 2026-04-24 21:14 | 33.67828 | -78.96218 | 4589 ft | 264 kts | 54° |
| 2026-04-24 21:14 | 33.68917 | -78.94322 | 4828 ft | 283 kts | 57° |
| 2026-04-24 21:15 | 33.70015 | -78.92350 | 5524 ft | 283 kts | 57° |
| 2026-04-24 21:15 | 33.71129 | -78.90357 | 6053 ft | 292 kts | 56° |
| 2026-04-24 21:15 | 33.72269 | -78.88343 | 6749 ft | 291 kts | 55° |
| 2026-04-24 21:15 | 33.73424 | -78.86323 | 7307 ft | 298 kts | 54° |
| 2026-04-24 21:16 | 33.74600 | -78.84275 | 8040 ft | 294 kts | 53° |
| 2026-04-24 21:16 | 33.75768 | -78.82250 | 8751 ft | 297 kts | 53° |
| 2026-04-24 21:16 | 33.76958 | -78.80191 | 9410 ft | 301 kts | 53° |
| 2026-04-24 21:16 | 33.78149 | -78.78132 | 10154 ft | 301 kts | 52° |
| 2026-04-24 21:17 | 33.79379 | -78.76006 | 10449 ft | 320 kts | 53° |
| 2026-04-24 21:17 | 33.80693 | -78.73738 | 10583 ft | 341 kts | 53° |
| 2026-04-24 21:17 | 33.82110 | -78.71348 | 10742 ft | 360 kts | 51° |
| 2026-04-24 21:17 | 33.83140 | -78.69749 | 10917 ft | 370 kts | 49° |
| 2026-04-24 21:18 | 33.85327 | -78.66483 | 11655 ft | 375 kts | 49° |
| 2026-04-24 21:18 | 33.86415 | -78.64873 | 12144 ft | 375 kts | 49° |
| 2026-04-24 21:18 | 33.88071 | -78.62421 | 12749 ft | 380 kts | 49° |
| 2026-04-24 21:18 | 33.89740 | -78.59938 | 13389 ft | 384 kts | 49° |
| 2026-04-24 21:19 | 33.91422 | -78.57422 | 14032 ft | 387 kts | 49° |
| 2026-04-24 21:19 | 33.93113 | -78.54883 | 14592 ft | 391 kts | 49° |
| 2026-04-24 21:19 | 33.94820 | -78.52312 | 15183 ft | 395 kts | 49° |
| 2026-04-24 21:19 | 33.96544 | -78.49711 | 15739 ft | 400 kts | 49° |
| 2026-04-24 21:20 | 34.00043 | -78.44423 | 16876 ft | 407 kts | 49° |
| 2026-04-24 21:20 | 34.01814 | -78.41741 | 17419 ft | 411 kts | 50° |
| 2026-04-24 21:20 | 34.03603 | -78.39032 | 17979 ft | 415 kts | 49° |
| 2026-04-24 21:21 | 34.05409 | -78.36295 | 18462 ft | 419 kts | 50° |
| 2026-04-24 21:21 | 34.07228 | -78.33535 | 18942 ft | 422 kts | 50° |
| 2026-04-24 21:21 | 34.09058 | -78.30757 | 19449 ft | 424 kts | 50° |
| 2026-04-24 21:21 | 34.10899 | -78.27959 | 19934 ft | 427 kts | 50° |
| 2026-04-24 21:22 | 34.12750 | -78.25146 | 20426 ft | 430 kts | 50° |
| 2026-04-24 21:22 | 34.14615 | -78.22309 | 20907 ft | 432 kts | 50° |
| 2026-04-24 21:22 | 34.16491 | -78.19453 | 21356 ft | 436 kts | 50° |
| 2026-04-24 21:22 | 34.18376 | -78.16578 | 21842 ft | 437 kts | 50° |
| 2026-04-24 21:23 | 34.20267 | -78.13694 | 22331 ft | 439 kts | 50° |
| 2026-04-24 21:23 | 34.22169 | -78.10792 | 22743 ft | 442 kts | 50° |
| 2026-04-24 21:23 | 34.24080 | -78.07872 | 23142 ft | 445 kts | 50° |
| 2026-04-24 21:23 | 34.26007 | -78.04925 | 23527 ft | 448 kts | 50° |
| 2026-04-24 21:24 | 34.27942 | -78.01965 | 23872 ft | 450 kts | 50° |
| 2026-04-24 21:24 | 34.29884 | -77.98990 | 24239 ft | 452 kts | 50° |
| 2026-04-24 21:24 | 34.31837 | -77.96005 | 24606 ft | 453 kts | 48° |
| 2026-04-24 21:24 | 34.34080 | -77.93342 | 24892 ft | 453 kts | 33° |
| 2026-04-24 21:25 | 34.36822 | -77.91501 | 25225 ft | 451 kts | 19° |
| 2026-04-24 21:25 | 34.39829 | -77.90504 | 25596 ft | 448 kts | 6° |
| 2026-04-24 21:25 | 34.42914 | -77.89983 | 25987 ft | 448 kts | 5° |
| 2026-04-24 21:25 | 34.46016 | -77.89504 | 26306 ft | 450 kts | 5° |
| 2026-04-24 21:26 | 34.49093 | -77.89027 | 26608 ft | 453 kts | 5° |
| 2026-04-24 21:26 | 34.52228 | -77.88521 | 26924 ft | 456 kts | 6° |
| 2026-04-24 21:26 | 34.55369 | -77.87994 | 27253 ft | 458 kts | 6° |
| 2026-04-24 21:26 | 34.58526 | -77.87450 | 27585 ft | 460 kts | 6° |
| 2026-04-24 21:27 | 34.61702 | -77.86897 | 27891 ft | 462 kts | 6° |
| 2026-04-24 21:27 | 34.64883 | -77.86341 | 28202 ft | 464 kts | 6° |
| 2026-04-24 21:27 | 34.68092 | -77.85776 | 28495 ft | 466 kts | 6° |
| 2026-04-24 21:27 | 34.71304 | -77.85208 | 28851 ft | 467 kts | 6° |
| 2026-04-24 21:28 | 34.74513 | -77.84643 | 29331 ft | 465 kts | 6° |
| 2026-04-24 21:28 | 34.77708 | -77.84081 | 29862 ft | 462 kts | 6° |
| 2026-04-24 21:28 | 34.80887 | -77.83522 | 30297 ft | 461 kts | 6° |
| 2026-04-24 21:28 | 34.84058 | -77.82965 | 30658 ft | 461 kts | 6° |
| 2026-04-24 21:29 | 34.87226 | -77.82372 | 31002 ft | 461 kts | 9° |
| 2026-04-24 21:29 | 34.90349 | -77.81467 | 31384 ft | 461 kts | 12° |
| 2026-04-24 21:29 | 34.93435 | -77.80418 | 31794 ft | 460 kts | 13° |
| 2026-04-24 21:29 | 34.96507 | -77.79325 | 32147 ft | 460 kts | 13° |
| 2026-04-24 21:30 | 34.99573 | -77.78231 | 32471 ft | 460 kts | 13° |
| 2026-04-24 21:30 | 35.02645 | -77.77149 | 32819 ft | 459 kts | 13° |
| 2026-04-24 21:30 | 35.05709 | -77.76086 | 33182 ft | 457 kts | 13° |
| 2026-04-24 21:30 | 35.08771 | -77.75036 | 33518 ft | 457 kts | 13° |
| 2026-04-24 21:31 | 35.11829 | -77.73995 | 33842 ft | 456 kts | 12° |
| 2026-04-24 21:31 | 35.14884 | -77.72958 | 34134 ft | 455 kts | 12° |
| 2026-04-24 21:31 | 35.17933 | -77.71924 | 34426 ft | 454 kts | 12° |
| 2026-04-24 21:31 | 35.20975 | -77.70891 | 34702 ft | 453 kts | 12° |
| 2026-04-24 21:32 | 35.24013 | -77.69859 | 34880 ft | 454 kts | 12° |
| 2026-04-24 21:32 | 35.30125 | -77.67779 | 34867 ft | 455 kts | 12° |
| 2026-04-24 21:33 | 35.36201 | -77.65705 | 34873 ft | 452 kts | 12° |
| 2026-04-24 21:33 | 35.42239 | -77.63640 | 34869 ft | 449 kts | 12° |
| 2026-04-24 21:34 | 35.48253 | -77.61582 | 34870 ft | 448 kts | 12° |
| 2026-04-24 21:34 | 35.54253 | -77.59525 | 34853 ft | 448 kts | 12° |
| 2026-04-24 21:35 | 35.60264 | -77.57462 | 34862 ft | 449 kts | 12° |
| 2026-04-24 21:35 | 35.66283 | -77.55391 | 34854 ft | 450 kts | 12° |
| 2026-04-24 21:36 | 35.72315 | -77.53313 | 34847 ft | 451 kts | 12° |
| 2026-04-24 21:36 | 35.78365 | -77.51282 | 34847 ft | 451 kts | 11° |
| 2026-04-24 21:37 | 35.84434 | -77.49327 | 34852 ft | 451 kts | 11° |
| 2026-04-24 21:37 | 35.90506 | -77.47369 | 34855 ft | 451 kts | 11° |
| 2026-04-24 21:38 | 35.96570 | -77.45398 | 34850 ft | 451 kts | 11° |
| 2026-04-24 21:38 | 36.02633 | -77.43418 | 34855 ft | 450 kts | 11° |
| 2026-04-24 21:39 | 36.08687 | -77.41438 | 34863 ft | 450 kts | 11° |
| 2026-04-24 21:39 | 36.14729 | -77.39458 | 34845 ft | 449 kts | 12° |
| 2026-04-24 21:40 | 36.19735 | -77.37816 | 34841 ft | 447 kts | 12° |
| 2026-04-24 21:40 | 36.26717 | -77.35522 | 34841 ft | 446 kts | 12° |
| 2026-04-24 21:41 | 36.32743 | -77.33539 | 34853 ft | 444 kts | 12° |
| 2026-04-24 21:41 | 36.38674 | -77.31584 | 34838 ft | 444 kts | 12° |
| 2026-04-24 21:42 | 36.44631 | -77.29617 | 34847 ft | 442 kts | 12° |
| 2026-04-24 21:42 | 36.50575 | -77.27651 | 34844 ft | 442 kts | 12° |
| 2026-04-24 21:43 | 36.56505 | -77.25682 | 34861 ft | 441 kts | 12° |
| 2026-04-24 21:43 | 36.62436 | -77.23708 | 34849 ft | 441 kts | 12° |
| 2026-04-24 21:44 | 36.68357 | -77.21736 | 34857 ft | 441 kts | 12° |
| 2026-04-24 21:44 | 36.74282 | -77.19759 | 34843 ft | 441 kts | 12° |
| 2026-04-24 21:45 | 36.80204 | -77.17779 | 34843 ft | 441 kts | 11° |
| 2026-04-24 21:45 | 36.86127 | -77.15796 | 34829 ft | 441 kts | 11° |
| 2026-04-24 21:46 | 36.92046 | -77.13811 | 34833 ft | 440 kts | 11° |
| 2026-04-24 21:46 | 36.97961 | -77.11824 | 34836 ft | 440 kts | 11° |
| 2026-04-24 21:47 | 37.03872 | -77.09836 | 34838 ft | 440 kts | 11° |
| 2026-04-24 21:47 | 37.09782 | -77.07845 | 34833 ft | 440 kts | 11° |
| 2026-04-24 21:48 | 37.15728 | -77.05838 | 34834 ft | 439 kts | 11° |
| 2026-04-24 21:48 | 37.21631 | -77.03842 | 34836 ft | 439 kts | 11° |
| 2026-04-24 21:49 | 37.27492 | -77.01858 | 34847 ft | 439 kts | 11° |
| 2026-04-24 21:49 | 37.33346 | -76.99872 | 34835 ft | 439 kts | 11° |
| 2026-04-24 21:50 | 37.39196 | -76.97885 | 34836 ft | 438 kts | 11° |
| 2026-04-24 21:50 | 37.45033 | -76.95898 | 34837 ft | 438 kts | 12° |
| 2026-04-24 21:51 | 37.50668 | -76.92842 | 34843 ft | 445 kts | 24° |
| 2026-04-24 21:51 | 37.56033 | -76.89099 | 34841 ft | 445 kts | 24° |
| 2026-04-24 21:52 | 37.61460 | -76.85367 | 34864 ft | 443 kts | 23° |
| 2026-04-24 21:52 | 37.66911 | -76.81707 | 34843 ft | 444 kts | 23° |
| 2026-04-24 21:53 | 37.72338 | -76.78085 | 34855 ft | 443 kts | 23° |
| 2026-04-24 21:53 | 37.77706 | -76.74494 | 34833 ft | 443 kts | 23° |
| 2026-04-24 21:54 | 37.83106 | -76.70872 | 34836 ft | 441 kts | 23° |
| 2026-04-24 21:54 | 37.88527 | -76.67243 | 34835 ft | 440 kts | 22° |
| 2026-04-24 21:55 | 37.93982 | -76.63776 | 34839 ft | 438 kts | 21° |
| 2026-04-24 21:55 | 37.99443 | -76.60351 | 34837 ft | 438 kts | 21° |
| 2026-04-24 21:56 | 38.04890 | -76.56908 | 34829 ft | 437 kts | 21° |
| 2026-04-24 21:56 | 38.10320 | -76.53455 | 34834 ft | 438 kts | 21° |
| 2026-04-24 21:57 | 38.15766 | -76.49984 | 34857 ft | 438 kts | 21° |
| 2026-04-24 21:57 | 38.21237 | -76.46491 | 34835 ft | 437 kts | 21° |
| 2026-04-24 21:58 | 38.26629 | -76.43044 | 34868 ft | 436 kts | 21° |
| 2026-04-24 21:58 | 38.31913 | -76.39106 | 34880 ft | 442 kts | 31° |
| 2026-04-24 21:59 | 38.36727 | -76.34275 | 34876 ft | 444 kts | 33° |
| 2026-04-24 21:59 | 38.41332 | -76.29607 | 34859 ft | 444 kts | 32° |
| 2026-04-24 22:00 | 38.46181 | -76.24812 | 34862 ft | 443 kts | 32° |
| 2026-04-24 22:00 | 38.51075 | -76.20017 | 34872 ft | 444 kts | 32° |
| 2026-04-24 22:01 | 38.55147 | -76.16022 | 34895 ft | 444 kts | 32° |
| 2026-04-24 22:01 | 38.60049 | -76.11202 | 34885 ft | 445 kts | 32° |
| 2026-04-24 22:02 | 38.65002 | -76.06376 | 34200 ft | 451 kts | 31° |
| 2026-04-24 22:02 | 38.67535 | -76.04009 | 33401 ft | 452 kts | 31° |
| 2026-04-24 22:02 | 38.70086 | -76.01651 | 32575 ft | 453 kts | 31° |
| 2026-04-24 22:02 | 38.72636 | -75.99291 | 31939 ft | 449 kts | 31° |
| 2026-04-24 22:03 | 38.75147 | -75.96955 | 31390 ft | 444 kts | 30° |
| 2026-04-24 22:03 | 38.77631 | -75.94636 | 30817 ft | 440 kts | 31° |
| 2026-04-24 22:03 | 38.80091 | -75.92332 | 30205 ft | 436 kts | 31° |
| 2026-04-24 22:03 | 38.82528 | -75.90047 | 29589 ft | 432 kts | 31° |
| 2026-04-24 22:04 | 38.84939 | -75.87783 | 28968 ft | 427 kts | 31° |
| 2026-04-24 22:04 | 38.87318 | -75.85547 | 28420 ft | 422 kts | 31° |
| 2026-04-24 22:04 | 38.89671 | -75.83335 | 27842 ft | 417 kts | 31° |
| 2026-04-24 22:04 | 38.92000 | -75.81144 | 27313 ft | 413 kts | 31° |
| 2026-04-24 22:05 | 38.94200 | -75.79073 | 26816 ft | 409 kts | 30° |
| 2026-04-24 22:05 | 38.96462 | -75.76936 | 26627 ft | 398 kts | 30° |
| 2026-04-24 22:05 | 38.98676 | -75.74841 | 26381 ft | 393 kts | 30° |
| 2026-04-24 22:05 | 39.00898 | -75.72744 | 26167 ft | 401 kts | 30° |
| 2026-04-24 22:06 | 39.03172 | -75.70601 | 25940 ft | 408 kts | 30° |
| 2026-04-24 22:06 | 39.05457 | -75.68439 | 25698 ft | 407 kts | 30° |
| 2026-04-24 22:06 | 39.07718 | -75.66293 | 25464 ft | 403 kts | 30° |
| 2026-04-24 22:06 | 39.09975 | -75.64148 | 25233 ft | 401 kts | 30° |
| 2026-04-24 22:07 | 39.12215 | -75.62019 | 25008 ft | 399 kts | 30° |
| 2026-04-24 22:07 | 39.14351 | -75.59989 | 24802 ft | 398 kts | 30° |
| 2026-04-24 22:07 | 39.16575 | -75.57874 | 24573 ft | 397 kts | 30° |
| 2026-04-24 22:07 | 39.18752 | -75.55804 | 24351 ft | 396 kts | 30° |
| 2026-04-24 22:08 | 39.20824 | -75.53831 | 24132 ft | 396 kts | 30° |
| 2026-04-24 22:08 | 39.22994 | -75.51763 | 23910 ft | 396 kts | 30° |
| 2026-04-24 22:08 | 39.25133 | -75.49778 | 23574 ft | 398 kts | 29° |
| 2026-04-24 22:08 | 39.27406 | -75.47763 | 23195 ft | 400 kts | 28° |
| 2026-04-24 22:09 | 39.29698 | -75.45757 | 22791 ft | 396 kts | 28° |
| 2026-04-24 22:09 | 39.31815 | -75.43902 | 22445 ft | 391 kts | 28° |
| 2026-04-24 22:09 | 39.34038 | -75.41943 | 22120 ft | 386 kts | 28° |
| 2026-04-24 22:09 | 39.36228 | -75.40006 | 21772 ft | 382 kts | 28° |
| 2026-04-24 22:10 | 39.38383 | -75.38093 | 21422 ft | 379 kts | 28° |
| 2026-04-24 22:10 | 39.40393 | -75.36306 | 21113 ft | 376 kts | 28° |
| 2026-04-24 22:10 | 39.42517 | -75.34415 | 20796 ft | 373 kts | 28° |
| 2026-04-24 22:10 | 39.44658 | -75.32509 | 20478 ft | 375 kts | 28° |
| 2026-04-24 22:11 | 39.46797 | -75.30604 | 20151 ft | 378 kts | 28° |
| 2026-04-24 22:11 | 39.48960 | -75.28674 | 19818 ft | 377 kts | 29° |
| 2026-04-24 22:11 | 39.51113 | -75.26745 | 19480 ft | 376 kts | 29° |
| 2026-04-24 22:11 | 39.53235 | -75.24783 | 19159 ft | 374 kts | 30° |
| 2026-04-24 22:12 | 39.55337 | -75.22807 | 18833 ft | 373 kts | 30° |
| 2026-04-24 22:12 | 39.57432 | -75.20831 | 18504 ft | 372 kts | 30° |
| 2026-04-24 22:12 | 39.59518 | -75.18865 | 18176 ft | 370 kts | 30° |
| 2026-04-24 22:12 | 39.61598 | -75.16909 | 17807 ft | 369 kts | 30° |
| 2026-04-24 22:13 | 39.63667 | -75.14966 | 17537 ft | 365 kts | 30° |
| 2026-04-24 22:13 | 39.65716 | -75.13040 | 17201 ft | 363 kts | 30° |
| 2026-04-24 22:13 | 39.67754 | -75.11126 | 16889 ft | 361 kts | 30° |
| 2026-04-24 22:13 | 39.69816 | -75.09281 | 16554 ft | 358 kts | 28° |
| 2026-04-24 22:14 | 39.71895 | -75.07508 | 16228 ft | 357 kts | 27° |
| 2026-04-24 22:14 | 39.73973 | -75.05750 | 15909 ft | 356 kts | 27° |
| 2026-04-24 22:14 | 39.76043 | -75.03991 | 15583 ft | 355 kts | 27° |
| 2026-04-24 22:14 | 39.78106 | -75.02226 | 15254 ft | 354 kts | 27° |
| 2026-04-24 22:15 | 39.80157 | -75.00462 | 14929 ft | 353 kts | 27° |
| 2026-04-24 22:15 | 39.82198 | -74.98701 | 14618 ft | 351 kts | 27° |
| 2026-04-24 22:15 | 39.84222 | -74.96952 | 14292 ft | 347 kts | 27° |
| 2026-04-24 22:15 | 39.86212 | -74.95202 | 13976 ft | 344 kts | 28° |
| 2026-04-24 22:16 | 39.88167 | -74.93428 | 13659 ft | 341 kts | 29° |
| 2026-04-24 22:16 | 39.90099 | -74.91666 | 13308 ft | 338 kts | 28° |
| 2026-04-24 22:16 | 39.92012 | -74.89916 | 13007 ft | 335 kts | 30° |
| 2026-04-24 22:16 | 39.93739 | -74.87852 | 12717 ft | 338 kts | 40° |
| 2026-04-24 22:17 | 39.95290 | -74.85553 | 12437 ft | 338 kts | 42° |
| 2026-04-24 22:17 | 39.96836 | -74.83242 | 12173 ft | 339 kts | 41° |
| 2026-04-24 22:17 | 39.98399 | -74.80936 | 11885 ft | 340 kts | 41° |
| 2026-04-24 22:17 | 39.99984 | -74.78646 | 11606 ft | 339 kts | 41° |
| 2026-04-24 22:18 | 40.01551 | -74.76396 | 11324 ft | 331 kts | 40° |
| 2026-04-24 22:18 | 40.03085 | -74.74196 | 11065 ft | 324 kts | 40° |
| 2026-04-24 22:18 | 40.04589 | -74.72040 | 10808 ft | 317 kts | 40° |
| 2026-04-24 22:18 | 40.06047 | -74.69945 | 10546 ft | 306 kts | 40° |
| 2026-04-24 22:19 | 40.07456 | -74.67918 | 10307 ft | 297 kts | 40° |
| 2026-04-24 22:19 | 40.08821 | -74.65952 | 10048 ft | 288 kts | 39° |
| 2026-04-24 22:19 | 40.10146 | -74.64047 | 9900 ft | 281 kts | 39° |
| 2026-04-24 22:19 | 40.11457 | -74.62164 | 9779 ft | 279 kts | 39° |
| 2026-04-24 22:20 | 40.12762 | -74.60289 | 9646 ft | 278 kts | 39° |
| 2026-04-24 22:20 | 40.14058 | -74.58425 | 9518 ft | 277 kts | 39° |
| 2026-04-24 22:20 | 40.15351 | -74.56563 | 9381 ft | 276 kts | 39° |
| 2026-04-24 22:20 | 40.16637 | -74.54710 | 9257 ft | 275 kts | 40° |
| 2026-04-24 22:21 | 40.17917 | -74.52862 | 9145 ft | 274 kts | 40° |
| 2026-04-24 22:21 | 40.19195 | -74.51018 | 9018 ft | 274 kts | 40° |
| 2026-04-24 22:21 | 40.20476 | -74.49179 | 8910 ft | 273 kts | 38° |
| 2026-04-24 22:21 | 40.21823 | -74.47441 | 8788 ft | 271 kts | 36° |
| 2026-04-24 22:22 | 40.23192 | -74.45743 | 8670 ft | 272 kts | 36° |
| 2026-04-24 22:22 | 40.24564 | -74.44038 | 8545 ft | 272 kts | 37° |
| 2026-04-24 22:22 | 40.25932 | -74.42323 | 8433 ft | 273 kts | 37° |
| 2026-04-24 22:22 | 40.27303 | -74.40595 | 8307 ft | 274 kts | 37° |
| 2026-04-24 22:23 | 40.28675 | -74.38863 | 8187 ft | 274 kts | 38° |
| 2026-04-24 22:23 | 40.30049 | -74.37126 | 8063 ft | 275 kts | 38° |
| 2026-04-24 22:23 | 40.31425 | -74.35384 | 7977 ft | 275 kts | 37° |
| 2026-04-24 22:23 | 40.32803 | -74.33640 | 7843 ft | 275 kts | 36° |
| 2026-04-24 22:24 | 40.34181 | -74.31894 | 7725 ft | 276 kts | 36° |
| 2026-04-24 22:24 | 40.35561 | -74.30146 | 7599 ft | 276 kts | 37° |
| 2026-04-24 22:24 | 40.36940 | -74.28397 | 7463 ft | 275 kts | 37° |
| 2026-04-24 22:24 | 40.38315 | -74.26652 | 7348 ft | 274 kts | 37° |
| 2026-04-24 22:25 | 40.39683 | -74.24913 | 7236 ft | 273 kts | 37° |
| 2026-04-24 22:25 | 40.41047 | -74.23180 | 7108 ft | 272 kts | 37° |
| 2026-04-24 22:25 | 40.42401 | -74.21457 | 6998 ft | 271 kts | 37° |
| 2026-04-24 22:25 | 40.43749 | -74.19742 | 6880 ft | 269 kts | 37° |
| 2026-04-24 22:26 | 40.45092 | -74.18032 | 6761 ft | 268 kts | 37° |
| 2026-04-24 22:26 | 40.46427 | -74.16333 | 6643 ft | 267 kts | 38° |
| 2026-04-24 22:26 | 40.47757 | -74.14639 | 6529 ft | 266 kts | 39° |
| 2026-04-24 22:26 | 40.49082 | -74.12951 | 6413 ft | 265 kts | 39° |
| 2026-04-24 22:27 | 40.50403 | -74.11265 | 6295 ft | 265 kts | 39° |
| 2026-04-24 22:27 | 40.51727 | -74.09580 | 6172 ft | 265 kts | 38° |
| 2026-04-24 22:27 | 40.53181 | -74.08143 | 6021 ft | 259 kts | 27° |
| 2026-04-24 22:27 | 40.54709 | -74.06901 | 5620 ft | 258 kts | 27° |
| 2026-04-24 22:28 | 40.56230 | -74.05660 | 5281 ft | 253 kts | 27° |
| 2026-04-24 22:28 | 40.57671 | -74.04461 | 5170 ft | 238 kts | 27° |
| 2026-04-24 22:28 | 40.59034 | -74.03314 | 4981 ft | 229 kts | 28° |
| 2026-04-24 22:28 | 40.60367 | -74.02188 | 4608 ft | 228 kts | 28° |
| 2026-04-24 22:29 | 40.63022 | -73.99940 | 4177 ft | 224 kts | 28° |
| 2026-04-24 22:29 | 40.64314 | -73.98867 | 4041 ft | 221 kts | 28° |
| 2026-04-24 22:29 | 40.65614 | -73.97795 | 3905 ft | 220 kts | 29° |
| 2026-04-24 22:30 | 40.66904 | -73.96732 | 3776 ft | 217 kts | 30° |
| 2026-04-24 22:30 | 40.68196 | -73.95665 | 3647 ft | 215 kts | 30° |
| 2026-04-24 22:30 | 40.69461 | -73.94621 | 3532 ft | 214 kts | 30° |
| 2026-04-24 22:30 | 40.70714 | -73.93585 | 3415 ft | 212 kts | 31° |
| 2026-04-24 22:31 | 40.71959 | -73.92555 | 3293 ft | 211 kts | 31° |
| 2026-04-24 22:31 | 40.73199 | -73.91529 | 3159 ft | 211 kts | 31° |
| 2026-04-24 22:31 | 40.74442 | -73.90475 | 3045 ft | 214 kts | 32° |
| 2026-04-24 22:31 | 40.75681 | -73.89431 | 3029 ft | 208 kts | 31° |
| 2026-04-24 22:32 | 40.76877 | -73.88441 | 2941 ft | 197 kts | 32° |
| 2026-04-24 22:32 | 40.78006 | -73.87510 | 2731 ft | 189 kts | 31° |
| 2026-04-24 22:32 | 40.79102 | -73.86566 | 2408 ft | 187 kts | 33° |
| 2026-04-24 22:32 | 40.80178 | -73.85611 | 2070 ft | 187 kts | 33° |
| 2026-04-24 22:33 | 40.81279 | -73.84660 | 2040 ft | 190 kts | 27° |
| 2026-04-24 22:33 | 40.82554 | -73.84328 | 2003 ft | 188 kts | 356° |
| 2026-04-24 22:33 | 40.83856 | -73.84469 | 1992 ft | 188 kts | 357° |
| 2026-04-24 22:33 | 40.85164 | -73.84584 | 1990 ft | 187 kts | 357° |
| 2026-04-24 22:34 | 40.86453 | -73.84696 | 1989 ft | 184 kts | 357° |
| 2026-04-24 22:34 | 40.87710 | -73.84807 | 1988 ft | 183 kts | 357° |
| 2026-04-24 22:34 | 40.88982 | -73.84915 | 1985 ft | 183 kts | 357° |
| 2026-04-24 22:34 | 40.90251 | -73.85019 | 1993 ft | 183 kts | 357° |
| 2026-04-24 22:35 | 40.91525 | -73.85117 | 1998 ft | 184 kts | 357° |
| 2026-04-24 22:35 | 40.92726 | -73.85208 | 1987 ft | 184 kts | 357° |
| 2026-04-24 22:35 | 40.93996 | -73.85305 | 1999 ft | 182 kts | 357° |
| 2026-04-24 22:35 | 40.95252 | -73.85387 | 1985 ft | 181 kts | 3° |
| 2026-04-24 22:36 | 40.96436 | -73.84855 | 2002 ft | 184 kts | 33° |
| 2026-04-24 22:36 | 40.97467 | -73.83894 | 1985 ft | 182 kts | 42° |
| 2026-04-24 22:36 | 40.98019 | -73.82588 | 1983 ft | 176 kts | 80° |
| 2026-04-24 22:36 | 40.97774 | -73.81025 | 1982 ft | 179 kts | 119° |
| 2026-04-24 22:37 | 40.97074 | -73.79691 | 1998 ft | 178 kts | 124° |
| 2026-04-24 22:37 | 40.96467 | -73.78591 | 2008 ft | 178 kts | 124° |
| 2026-04-24 22:37 | 40.95782 | -73.77498 | 1976 ft | 181 kts | 140° |
| 2026-04-24 22:37 | 40.94620 | -73.76947 | 2000 ft | 179 kts | 174° |
| 2026-04-24 22:38 | 40.93399 | -73.76860 | 1988 ft | 182 kts | 176° |
| 2026-04-24 22:38 | 40.92191 | -73.76811 | 2006 ft | 187 kts | 177° |
| 2026-04-24 22:38 | 40.90895 | -73.76871 | 1976 ft | 188 kts | 196° |
| 2026-04-24 22:38 | 40.89824 | -73.77769 | 2019 ft | 184 kts | 220° |
| 2026-04-24 22:39 | 40.88712 | -73.78651 | 2010 ft | 188 kts | 208° |
| 2026-04-24 22:39 | 40.87593 | -73.79534 | 2000 ft | 183 kts | 214° |
| 2026-04-24 22:39 | 40.86542 | -73.80429 | 1871 ft | 180 kts | 213° |
| 2026-04-24 22:39 | 40.85496 | -73.81301 | 1656 ft | 178 kts | 213° |
| 2026-04-24 22:40 | 40.84461 | -73.82159 | 1425 ft | 177 kts | 213° |
| 2026-04-24 22:40 | 40.83802 | -73.82706 | 1266 ft | 174 kts | 212° |
| 2026-04-24 22:40 | 40.82796 | -73.83540 | 1020 ft | 167 kts | 211° |
| 2026-04-24 22:40 | 40.81846 | -73.84329 | 797 ft | 155 kts | 210° |
| 2026-04-24 22:41 | 40.80969 | -73.85061 | 561 ft | 145 kts | 211° |
| 2026-04-24 22:41 | 40.80134 | -73.85787 | 383 ft | 145 kts | 211° |
| 2026-04-24 22:41 | 40.79280 | -73.86488 | 191 ft | 140 kts | 208° |
| 2026-04-24 22:41 | 40.78445 | -73.87158 | 32 ft | 140 kts | 209° |
| 2026-04-24 22:42 | 40.77709 | -73.87757 | 20 ft | 97 kts | 212° |
| 2026-04-24 22:42 | 40.77311 | -73.88086 | 19 ft | 51 kts | 212° |
| 2026-04-24 22:42 | 40.77089 | -73.88269 | 21 ft | 24 kts | 212° |
| 2026-04-24 22:42 | 40.76976 | -73.88362 | 22 ft | 13 kts | 212° |
| 2026-04-24 22:43 | 40.76934 | -73.88305 | 23 ft | 12 kts | 66° |
| 2026-04-24 22:43 | 40.76990 | -73.88222 | 23 ft | 13 kts | 45° |
| 2026-04-24 22:43 | 40.77072 | -73.88134 | 19 ft | 19 kts | 32° |
| 2026-04-24 22:43 | 40.77193 | -73.88035 | 19 ft | 21 kts | 32° |
| 2026-04-24 22:44 | 40.77313 | -73.87935 | 18 ft | 20 kts | 32° |
| 2026-04-24 22:44 | 40.77432 | -73.87838 | 21 ft | 19 kts | 31° |
| 2026-04-24 22:44 | 40.77542 | -73.87747 | 23 ft | 17 kts | 32° |
| 2026-04-24 22:44 | 40.77604 | -73.87679 | 22 ft | 10 kts | 70° |
| 2026-04-24 22:45 | 40.77626 | -73.87594 | 24 ft | 10 kts | 40° |
| 2026-04-24 22:45 | 40.77688 | -73.87542 | 22 ft | 12 kts | 32° |
| 2026-04-24 22:45 | 40.77750 | -73.87447 | 20 ft | 15 kts | 67° |
| 2026-04-24 22:45 | 40.77772 | -73.87320 | 17 ft | 10 kts | 90° |
| 2026-04-24 22:46 | 40.77732 | -73.87266 | 18 ft | 9 kts | 175° |
| 2026-04-24 22:46 | 40.77680 | -73.87226 | 17 ft | 6 kts | 149° |
| 2026-04-24 22:46 | 40.77638 | -73.87222 | 17 ft | 6 kts | 189° |
| 2026-04-24 22:46 | 40.77621 | -73.87226 | 17 ft | 0 kts | 191° |